Impacts METAR Board INFO
IDs:

KCLT - Charlotte/Douglas In, NC, US

Updated at: 0351 UTC 20 Nov 2017
Potential Impact None Slight Moderate High
Time19/15Z 19/16Z 19/17Z 19/18Z 19/19Z 19/20Z 19/21Z 19/22Z 19/23Z 20/00Z 20/01Z 20/02Z 20/03Z
VIS10 10 10 10 10 10 10 10 10 10 10 10 10
CIG-- -- -- -- -- -- -- -- -- -- -- -- --
CoverFEWCLRFEWFEWFEWFEWFEWCLRCLRCLRCLRCLRCLR
FltCatVFRVFRVFRVFRVFRVFRVFRVFRVFRVFRVFRVFRVFR
WX--------------------------
WDir310300300320290320330320320330350340340
WSpd11 7 10 11 8 11 8 8 5 7 6 4 6
WGst-- -- 17 -- 18 19 -- -- -- -- -- -- --
Raw hourly METARs
KCLT 191452Z 31011KT 10SM FEW040 FEW200 12/01 A2989 RMK AO2 SLP119 T01220011 51031
KCLT 191552Z 30007KT 10SM CLR 13/00 A2990 RMK AO2 SLP120 T01330000
KCLT 191652Z 30010G17KT 10SM FEW050 FEW200 14/M02 A2989 RMK AO2 SLP117 T01391017
KCLT 191752Z 32011KT 10SM FEW050 FEW200 14/M03 A2989 RMK AO2 SLP116 T01441028 10150 20089 58002
KCLT 191852Z 29008G18KT 10SM FEW055 14/M03 A2989 RMK AO2 SLP116 T01391028
KCLT 191952Z 32011G19KT 10SM FEW055 14/M03 A2989 RMK AO2 SLP118 T01441028
KCLT 192052Z 33008KT 10SM FEW055 13/M02 A2992 RMK AO2 SLP130 T01331022 53012
KCLT 192152Z 32008KT 10SM CLR 12/M02 A2995 RMK AO2 SLP141 T01171022
KCLT 192252Z 32005KT 10SM CLR 09/M03 A2997 RMK AO2 SLP147 T00941028
KCLT 192352Z 33007KT 10SM CLR 08/M02 A3001 RMK AO2 SLP161 T00781022 10150 20072 53027
KCLT 200052Z 35006KT 10SM CLR 06/M02 A3004 RMK AO2 SLP171 T00611017
KCLT 200152Z 34004KT 10SM CLR 05/M02 A3006 RMK AO2 SLP178 T00501022
KCLT 200252Z 34006KT 10SM CLR 04/M02 A3008 RMK AO2 SLP185 T00391022 51023